sensor_id;sensor_type;location;lat;lon;timestamp;temperature;humidity
18502;DHT22;68437;52.236;5.710;2023-09-19T00:00:30;14.50;99.90
18502;DHT22;68437;52.236;5.710;2023-09-19T00:02:59;14.50;99.90
18502;DHT22;68437;52.236;5.710;2023-09-19T00:05:28;14.50;99.90
18502;DHT22;68437;52.236;5.710;2023-09-19T00:07:56;14.50;99.90
18502;DHT22;68437;52.236;5.710;2023-09-19T00:10:24;14.60;99.90
18502;DHT22;68437;52.236;5.710;2023-09-19T00:12:53;14.50;99.90
18502;DHT22;68437;52.236;5.710;2023-09-19T00:15:21;14.50;99.90
18502;DHT22;68437;52.236;5.710;2023-09-19T00:17:48;14.50;99.90
18502;DHT22;68437;52.236;5.710;2023-09-19T00:20:18;14.40;99.90
18502;DHT22;68437;52.236;5.710;2023-09-19T00:22:48;14.40;99.90
18502;DHT22;68437;52.236;5.710;2023-09-19T00:25:16;14.40;99.90
18502;DHT22;68437;52.236;5.710;2023-09-19T00:27:42;14.30;99.90
18502;DHT22;68437;52.236;5.710;2023-09-19T00:30:12;14.40;99.90
18502;DHT22;68437;52.236;5.710;2023-09-19T00:32:42;14.30;99.90
18502;DHT22;68437;52.236;5.710;2023-09-19T00:35:10;14.30;99.90
18502;DHT22;68437;52.236;5.710;2023-09-19T00:37:37;14.30;99.90
18502;DHT22;68437;52.236;5.710;2023-09-19T00:40:07;14.30;99.90
18502;DHT22;68437;52.236;5.710;2023-09-19T00:42:38;14.20;99.90
18502;DHT22;68437;52.236;5.710;2023-09-19T00:45:06;14.20;99.90
18502;DHT22;68437;52.236;5.710;2023-09-19T00:47:35;14.20;99.90
18502;DHT22;68437;52.236;5.710;2023-09-19T00:50:04;14.20;99.90
18502;DHT22;68437;52.236;5.710;2023-09-19T00:52:33;14.10;99.90
18502;DHT22;68437;52.236;5.710;2023-09-19T00:55:02;14.20;99.90
18502;DHT22;68437;52.236;5.710;2023-09-19T00:57:31;14.10;99.90
18502;DHT22;68437;52.236;5.710;2023-09-19T01:00:00;14.20;99.90
18502;DHT22;68437;52.236;5.710;2023-09-19T01:02:31;14.20;99.90
18502;DHT22;68437;52.236;5.710;2023-09-19T01:04:58;14.10;99.90
18502;DHT22;68437;52.236;5.710;2023-09-19T01:07:25;14.10;99.90
18502;DHT22;68437;52.236;5.710;2023-09-19T01:09:52;14.20;99.90
18502;DHT22;68437;52.236;5.710;2023-09-19T01:12:27;14.10;99.90
18502;DHT22;68437;52.236;5.710;2023-09-19T01:15:06;14.10;99.90
18502;DHT22;68437;52.236;5.710;2023-09-19T01:17:38;14.20;99.90
18502;DHT22;68437;52.236;5.710;2023-09-19T01:20:17;14.20;99.90
18502;DHT22;68437;52.236;5.710;2023-09-19T01:22:56;14.10;99.90
18502;DHT22;68437;52.236;5.710;2023-09-19T01:28:48;14.10;99.90
18502;DHT22;68437;52.236;5.710;2023-09-19T01:31:21;14.10;99.90
18502;DHT22;68437;52.236;5.710;2023-09-19T01:34:00;14.10;99.90
18502;DHT22;68437;52.236;5.710;2023-09-19T01:36:31;14.10;99.90
18502;DHT22;68437;52.236;5.710;2023-09-19T01:39:01;14.00;99.90
18502;DHT22;68437;52.236;5.710;2023-09-19T01:41:45;14.10;99.90
18502;DHT22;68437;52.236;5.710;2023-09-19T01:44:19;14.10;99.90
18502;DHT22;68437;52.236;5.710;2023-09-19T01:46:49;14.10;99.90
18502;DHT22;68437;52.236;5.710;2023-09-19T01:49:25;14.10;99.90
18502;DHT22;68437;52.236;5.710;2023-09-19T01:52:00;14.00;99.90
18502;DHT22;68437;52.236;5.710;2023-09-19T01:54:33;14.00;99.90
18502;DHT22;68437;52.236;5.710;2023-09-19T01:57:08;14.00;99.90
18502;DHT22;68437;52.236;5.710;2023-09-19T01:59:43;14.00;99.90
18502;DHT22;68437;52.236;5.710;2023-09-19T02:02:14;14.00;99.90
18502;DHT22;68437;52.236;5.710;2023-09-19T02:04:41;14.00;99.90
18502;DHT22;68437;52.236;5.710;2023-09-19T02:07:08;14.00;99.90
18502;DHT22;68437;52.236;5.710;2023-09-19T02:09:35;14.00;99.90
18502;DHT22;68437;52.236;5.710;2023-09-19T02:12:05;14.00;99.90
18502;DHT22;68437;52.236;5.710;2023-09-19T02:14:32;14.00;99.90
18502;DHT22;68437;52.236;5.710;2023-09-19T02:16:59;14.10;99.90
18502;DHT22;68437;52.236;5.710;2023-09-19T02:19:28;14.10;99.90
18502;DHT22;68437;52.236;5.710;2023-09-19T02:21:55;14.10;99.90
18502;DHT22;68437;52.236;5.710;2023-09-19T02:24:22;14.10;99.90
18502;DHT22;68437;52.236;5.710;2023-09-19T02:26:52;14.10;99.90
18502;DHT22;68437;52.236;5.710;2023-09-19T02:29:20;14.10;99.90
18502;DHT22;68437;52.236;5.710;2023-09-19T02:31:47;14.10;99.90
18502;DHT22;68437;52.236;5.710;2023-09-19T02:34:14;14.10;99.90
18502;DHT22;68437;52.236;5.710;2023-09-19T02:36:43;14.10;99.90
18502;DHT22;68437;52.236;5.710;2023-09-19T02:39:10;14.10;99.90
18502;DHT22;68437;52.236;5.710;2023-09-19T02:41:38;14.10;99.90
18502;DHT22;68437;52.236;5.710;2023-09-19T02:44:07;14.00;99.90
18502;DHT22;68437;52.236;5.710;2023-09-19T02:46:34;14.00;99.90
18502;DHT22;68437;52.236;5.710;2023-09-19T02:49:01;14.00;99.90
18502;DHT22;68437;52.236;5.710;2023-09-19T02:51:29;14.00;99.90
18502;DHT22;68437;52.236;5.710;2023-09-19T02:53:57;14.00;99.90
18502;DHT22;68437;52.236;5.710;2023-09-19T02:56:24;14.00;99.90
18502;DHT22;68437;52.236;5.710;2023-09-19T02:58:50;14.00;99.90
18502;DHT22;68437;52.236;5.710;2023-09-19T03:01:18;13.90;99.90
18502;DHT22;68437;52.236;5.710;2023-09-19T03:03:44;13.90;99.90
18502;DHT22;68437;52.236;5.710;2023-09-19T03:06:11;13.90;99.90
18502;DHT22;68437;52.236;5.710;2023-09-19T03:08:40;13.90;99.90
18502;DHT22;68437;52.236;5.710;2023-09-19T03:11:09;13.80;99.90
18502;DHT22;68437;52.236;5.710;2023-09-19T03:13:37;13.80;99.90
18502;DHT22;68437;52.236;5.710;2023-09-19T03:16:05;13.80;99.90
18502;DHT22;68437;52.236;5.710;2023-09-19T03:18:33;13.80;99.90
18502;DHT22;68437;52.236;5.710;2023-09-19T03:21:00;13.70;99.90
18502;DHT22;68437;52.236;5.710;2023-09-19T03:23:27;13.70;99.90
18502;DHT22;68437;52.236;5.710;2023-09-19T03:25:54;13.60;99.90
18502;DHT22;68437;52.236;5.710;2023-09-19T03:28:23;13.60;99.90
18502;DHT22;68437;52.236;5.710;2023-09-19T03:30:58;13.60;99.90
18502;DHT22;68437;52.236;5.710;2023-09-19T03:33:26;13.60;99.90
18502;DHT22;68437;52.236;5.710;2023-09-19T03:35:53;13.50;99.90
18502;DHT22;68437;52.236;5.710;2023-09-19T03:38:20;13.50;99.90
18502;DHT22;68437;52.236;5.710;2023-09-19T03:40:47;13.50;99.90
18502;DHT22;68437;52.236;5.710;2023-09-19T03:43:14;13.40;99.90
18502;DHT22;68437;52.236;5.710;2023-09-19T03:45:42;13.30;99.90
18502;DHT22;68437;52.236;5.710;2023-09-19T03:48:10;13.30;99.90
18502;DHT22;68437;52.236;5.710;2023-09-19T03:50:37;13.30;99.90
18502;DHT22;68437;52.236;5.710;2023-09-19T03:53:04;13.30;99.90
18502;DHT22;68437;52.236;5.710;2023-09-19T03:55:33;13.20;99.90
18502;DHT22;68437;52.236;5.710;2023-09-19T03:58:01;13.20;99.90
18502;DHT22;68437;52.236;5.710;2023-09-19T04:00:27;13.10;99.90
18502;DHT22;68437;52.236;5.710;2023-09-19T04:02:56;13.10;99.90
18502;DHT22;68437;52.236;5.710;2023-09-19T04:05:23;13.10;99.90
18502;DHT22;68437;52.236;5.710;2023-09-19T04:07:49;13.00;99.90
18502;DHT22;68437;52.236;5.710;2023-09-19T04:10:17;13.00;99.90
18502;DHT22;68437;52.236;5.710;2023-09-19T04:12:51;13.10;99.90
18502;DHT22;68437;52.236;5.710;2023-09-19T04:15:18;13.00;99.90
18502;DHT22;68437;52.236;5.710;2023-09-19T04:17:45;13.00;99.90
18502;DHT22;68437;52.236;5.710;2023-09-19T04:20:13;13.00;99.90
18502;DHT22;68437;52.236;5.710;2023-09-19T04:22:41;12.90;99.90
18502;DHT22;68437;52.236;5.710;2023-09-19T04:25:08;12.90;99.90
18502;DHT22;68437;52.236;5.710;2023-09-19T04:27:35;12.90;99.90
18502;DHT22;68437;52.236;5.710;2023-09-19T04:30:03;12.90;99.90
18502;DHT22;68437;52.236;5.710;2023-09-19T04:32:37;12.80;99.90
18502;DHT22;68437;52.236;5.710;2023-09-19T04:35:05;12.80;99.90
18502;DHT22;68437;52.236;5.710;2023-09-19T04:37:37;12.80;99.90
18502;DHT22;68437;52.236;5.710;2023-09-19T04:40:07;12.80;99.90
18502;DHT22;68437;52.236;5.710;2023-09-19T04:42:38;12.80;99.90
18502;DHT22;68437;52.236;5.710;2023-09-19T04:45:06;12.80;99.90
18502;DHT22;68437;52.236;5.710;2023-09-19T04:47:35;12.80;99.90
18502;DHT22;68437;52.236;5.710;2023-09-19T04:50:05;12.80;99.90
18502;DHT22;68437;52.236;5.710;2023-09-19T04:52:33;12.80;99.90
18502;DHT22;68437;52.236;5.710;2023-09-19T04:55:01;12.80;99.90
18502;DHT22;68437;52.236;5.710;2023-09-19T04:57:29;12.80;99.90
18502;DHT22;68437;52.236;5.710;2023-09-19T04:59:57;12.90;99.90
18502;DHT22;68437;52.236;5.710;2023-09-19T05:02:24;12.90;99.90
18502;DHT22;68437;52.236;5.710;2023-09-19T05:04:51;12.80;99.90
18502;DHT22;68437;52.236;5.710;2023-09-19T05:07:19;12.80;99.90
18502;DHT22;68437;52.236;5.710;2023-09-19T05:09:47;12.70;99.90
18502;DHT22;68437;52.236;5.710;2023-09-19T05:12:15;12.70;99.90
18502;DHT22;68437;52.236;5.710;2023-09-19T05:14:44;12.70;99.90
18502;DHT22;68437;52.236;5.710;2023-09-19T05:17:10;12.70;99.90
18502;DHT22;68437;52.236;5.710;2023-09-19T05:19:37;12.70;99.90
18502;DHT22;68437;52.236;5.710;2023-09-19T05:22:04;12.70;99.90
18502;DHT22;68437;52.236;5.710;2023-09-19T05:24:32;12.70;99.90
18502;DHT22;68437;52.236;5.710;2023-09-19T05:26:59;12.60;99.90
18502;DHT22;68437;52.236;5.710;2023-09-19T05:29:27;12.70;99.90
18502;DHT22;68437;52.236;5.710;2023-09-19T05:31:54;12.70;99.90
18502;DHT22;68437;52.236;5.710;2023-09-19T05:34:21;12.70;99.90
18502;DHT22;68437;52.236;5.710;2023-09-19T05:36:48;12.70;99.90
18502;DHT22;68437;52.236;5.710;2023-09-19T05:39:15;12.70;99.90
18502;DHT22;68437;52.236;5.710;2023-09-19T05:41:42;12.70;99.90
18502;DHT22;68437;52.236;5.710;2023-09-19T05:44:09;12.70;99.90
18502;DHT22;68437;52.236;5.710;2023-09-19T05:46:37;12.70;99.90
18502;DHT22;68437;52.236;5.710;2023-09-19T05:49:04;12.80;99.90
18502;DHT22;68437;52.236;5.710;2023-09-19T05:51:31;12.80;99.90
18502;DHT22;68437;52.236;5.710;2023-09-19T05:53:58;12.80;99.90
18502;DHT22;68437;52.236;5.710;2023-09-19T05:56:24;12.80;99.90
18502;DHT22;68437;52.236;5.710;2023-09-19T05:58:52;12.90;99.90
18502;DHT22;68437;52.236;5.710;2023-09-19T06:01:19;12.90;99.90
18502;DHT22;68437;52.236;5.710;2023-09-19T06:03:48;12.90;99.90
18502;DHT22;68437;52.236;5.710;2023-09-19T06:06:14;12.90;99.90
18502;DHT22;68437;52.236;5.710;2023-09-19T06:08:42;13.00;99.90
18502;DHT22;68437;52.236;5.710;2023-09-19T06:11:10;12.90;99.90
18502;DHT22;68437;52.236;5.710;2023-09-19T06:13:37;13.00;99.90
18502;DHT22;68437;52.236;5.710;2023-09-19T06:16:05;13.00;99.90
18502;DHT22;68437;52.236;5.710;2023-09-19T06:18:31;13.00;99.90
18502;DHT22;68437;52.236;5.710;2023-09-19T06:21:01;13.10;99.90
18502;DHT22;68437;52.236;5.710;2023-09-19T06:23:31;13.10;99.90
18502;DHT22;68437;52.236;5.710;2023-09-19T06:25:59;13.10;99.90
18502;DHT22;68437;52.236;5.710;2023-09-19T06:28:26;13.20;99.90
18502;DHT22;68437;52.236;5.710;2023-09-19T06:30:53;13.30;99.90
18502;DHT22;68437;52.236;5.710;2023-09-19T06:33:20;13.30;99.90
18502;DHT22;68437;52.236;5.710;2023-09-19T06:35:48;13.40;99.90
18502;DHT22;68437;52.236;5.710;2023-09-19T06:38:16;13.50;99.90
18502;DHT22;68437;52.236;5.710;2023-09-19T06:40:44;13.60;99.90
18502;DHT22;68437;52.236;5.710;2023-09-19T06:43:12;13.70;99.90
18502;DHT22;68437;52.236;5.710;2023-09-19T06:45:39;13.70;99.90
18502;DHT22;68437;52.236;5.710;2023-09-19T06:48:06;13.80;99.90
18502;DHT22;68437;52.236;5.710;2023-09-19T06:50:35;13.90;99.90
18502;DHT22;68437;52.236;5.710;2023-09-19T06:53:02;14.00;99.90
18502;DHT22;68437;52.236;5.710;2023-09-19T06:55:31;14.10;99.90
18502;DHT22;68437;52.236;5.710;2023-09-19T06:57:58;14.00;99.90
18502;DHT22;68437;52.236;5.710;2023-09-19T07:00:25;14.10;99.90
18502;DHT22;68437;52.236;5.710;2023-09-19T07:02:57;14.10;99.90
18502;DHT22;68437;52.236;5.710;2023-09-19T07:05:26;14.10;99.90
18502;DHT22;68437;52.236;5.710;2023-09-19T07:07:54;14.10;99.90
18502;DHT22;68437;52.236;5.710;2023-09-19T07:10:22;14.10;99.90
18502;DHT22;68437;52.236;5.710;2023-09-19T07:12:56;14.10;99.90
18502;DHT22;68437;52.236;5.710;2023-09-19T07:15:24;14.20;99.90
18502;DHT22;68437;52.236;5.710;2023-09-19T07:17:51;14.20;99.90
18502;DHT22;68437;52.236;5.710;2023-09-19T07:20:19;14.30;99.90
18502;DHT22;68437;52.236;5.710;2023-09-19T07:22:46;14.30;99.90
18502;DHT22;68437;52.236;5.710;2023-09-19T07:25:13;14.40;99.90
18502;DHT22;68437;52.236;5.710;2023-09-19T07:27:41;14.40;99.90
18502;DHT22;68437;52.236;5.710;2023-09-19T07:30:10;14.50;99.90
18502;DHT22;68437;52.236;5.710;2023-09-19T07:32:38;14.60;99.90
18502;DHT22;68437;52.236;5.710;2023-09-19T07:35:06;14.60;99.90
18502;DHT22;68437;52.236;5.710;2023-09-19T07:37:34;14.70;99.90
18502;DHT22;68437;52.236;5.710;2023-09-19T07:40:01;14.60;99.90
18502;DHT22;68437;52.236;5.710;2023-09-19T07:42:32;14.70;99.90
18502;DHT22;68437;52.236;5.710;2023-09-19T07:45:02;14.80;99.90
18502;DHT22;68437;52.236;5.710;2023-09-19T07:47:31;14.80;99.90
18502;DHT22;68437;52.236;5.710;2023-09-19T07:49:58;14.80;99.90
18502;DHT22;68437;52.236;5.710;2023-09-19T07:52:25;14.90;99.90
18502;DHT22;68437;52.236;5.710;2023-09-19T07:54:53;14.90;99.90
18502;DHT22;68437;52.236;5.710;2023-09-19T07:57:20;15.00;99.90
18502;DHT22;68437;52.236;5.710;2023-09-19T07:59:47;15.10;99.90
18502;DHT22;68437;52.236;5.710;2023-09-19T08:02:14;15.20;99.90
18502;DHT22;68437;52.236;5.710;2023-09-19T08:04:43;15.20;99.90
18502;DHT22;68437;52.236;5.710;2023-09-19T08:07:11;15.30;99.90
18502;DHT22;68437;52.236;5.710;2023-09-19T08:09:38;15.40;99.90
18502;DHT22;68437;52.236;5.710;2023-09-19T08:12:06;15.50;99.90
18502;DHT22;68437;52.236;5.710;2023-09-19T08:14:33;15.60;99.90
18502;DHT22;68437;52.236;5.710;2023-09-19T08:17:00;15.70;99.90
18502;DHT22;68437;52.236;5.710;2023-09-19T08:19:27;15.80;99.90
18502;DHT22;68437;52.236;5.710;2023-09-19T08:21:58;15.90;99.90
18502;DHT22;68437;52.236;5.710;2023-09-19T08:24:25;16.00;99.90
18502;DHT22;68437;52.236;5.710;2023-09-19T08:26:54;16.10;99.90
18502;DHT22;68437;52.236;5.710;2023-09-19T08:29:21;16.10;99.90
18502;DHT22;68437;52.236;5.710;2023-09-19T08:31:53;16.20;99.90
18502;DHT22;68437;52.236;5.710;2023-09-19T08:34:21;16.20;99.90
18502;DHT22;68437;52.236;5.710;2023-09-19T08:36:50;16.20;99.90
18502;DHT22;68437;52.236;5.710;2023-09-19T08:39:18;16.30;99.90
18502;DHT22;68437;52.236;5.710;2023-09-19T08:41:45;16.20;99.90
18502;DHT22;68437;52.236;5.710;2023-09-19T08:44:12;16.30;99.90
18502;DHT22;68437;52.236;5.710;2023-09-19T08:46:41;16.20;99.90
18502;DHT22;68437;52.236;5.710;2023-09-19T08:49:13;16.30;99.90
18502;DHT22;68437;52.236;5.710;2023-09-19T08:51:43;16.30;99.90
18502;DHT22;68437;52.236;5.710;2023-09-19T08:54:21;16.30;99.90
18502;DHT22;68437;52.236;5.710;2023-09-19T08:56:50;16.30;99.90
18502;DHT22;68437;52.236;5.710;2023-09-19T08:59:21;16.40;99.90
18502;DHT22;68437;52.236;5.710;2023-09-19T09:01:50;16.40;99.90
18502;DHT22;68437;52.236;5.710;2023-09-19T09:04:19;16.50;99.90
18502;DHT22;68437;52.236;5.710;2023-09-19T09:06:46;16.50;99.90
18502;DHT22;68437;52.236;5.710;2023-09-19T09:09:14;16.60;99.90
18502;DHT22;68437;52.236;5.710;2023-09-19T09:11:43;16.70;99.90
18502;DHT22;68437;52.236;5.710;2023-09-19T09:14:09;16.80;99.90
18502;DHT22;68437;52.236;5.710;2023-09-19T09:16:37;16.90;99.90
18502;DHT22;68437;52.236;5.710;2023-09-19T09:19:05;17.00;99.90
18502;DHT22;68437;52.236;5.710;2023-09-19T09:21:32;17.00;99.90
18502;DHT22;68437;52.236;5.710;2023-09-19T09:24:28;17.10;99.90
18502;DHT22;68437;52.236;5.710;2023-09-19T09:26:57;17.20;99.90
18502;DHT22;68437;52.236;5.710;2023-09-19T09:29:43;17.20;99.90
18502;DHT22;68437;52.236;5.710;2023-09-19T09:32:24;17.10;99.90
18502;DHT22;68437;52.236;5.710;2023-09-19T09:34:52;17.10;99.90
18502;DHT22;68437;52.236;5.710;2023-09-19T09:37:20;17.10;99.90
18502;DHT22;68437;52.236;5.710;2023-09-19T09:39:52;17.20;99.90
18502;DHT22;68437;52.236;5.710;2023-09-19T09:42:32;17.30;99.90
18502;DHT22;68437;52.236;5.710;2023-09-19T09:45:16;17.50;99.90
18502;DHT22;68437;52.236;5.710;2023-09-19T09:47:46;17.40;99.90
18502;DHT22;68437;52.236;5.710;2023-09-19T09:50:28;17.40;99.90
18502;DHT22;68437;52.236;5.710;2023-09-19T09:53:21;17.50;99.90
18502;DHT22;68437;52.236;5.710;2023-09-19T09:55:58;17.50;99.90
18502;DHT22;68437;52.236;5.710;2023-09-19T09:58:27;17.50;99.90
18502;DHT22;68437;52.236;5.710;2023-09-19T10:00:56;17.50;99.90
18502;DHT22;68437;52.236;5.710;2023-09-19T10:03:32;17.60;99.90
18502;DHT22;68437;52.236;5.710;2023-09-19T10:06:06;17.60;99.90
18502;DHT22;68437;52.236;5.710;2023-09-19T10:09:00;17.60;99.90
18502;DHT22;68437;52.236;5.710;2023-09-19T10:11:43;17.60;99.90
18502;DHT22;68437;52.236;5.710;2023-09-19T10:14:13;17.60;99.90
18502;DHT22;68437;52.236;5.710;2023-09-19T10:16:45;17.60;99.90
18502;DHT22;68437;52.236;5.710;2023-09-19T10:19:16;17.70;99.90
18502;DHT22;68437;52.236;5.710;2023-09-19T10:21:44;17.70;99.90
18502;DHT22;68437;52.236;5.710;2023-09-19T10:24:11;17.60;99.90
18502;DHT22;68437;52.236;5.710;2023-09-19T10:26:42;17.60;99.90
18502;DHT22;68437;52.236;5.710;2023-09-19T10:29:13;17.50;99.90
18502;DHT22;68437;52.236;5.710;2023-09-19T10:31:42;17.50;99.90
18502;DHT22;68437;52.236;5.710;2023-09-19T10:34:15;17.50;99.90
18502;DHT22;68437;52.236;5.710;2023-09-19T10:36:44;17.60;99.90
18502;DHT22;68437;52.236;5.710;2023-09-19T10:39:15;17.60;99.90
18502;DHT22;68437;52.236;5.710;2023-09-19T10:41:50;17.70;99.90
18502;DHT22;68437;52.236;5.710;2023-09-19T10:44:23;17.80;99.90
18502;DHT22;68437;52.236;5.710;2023-09-19T10:46:51;17.80;99.90
18502;DHT22;68437;52.236;5.710;2023-09-19T10:49:19;18.10;99.90
18502;DHT22;68437;52.236;5.710;2023-09-19T10:51:49;18.30;99.90
18502;DHT22;68437;52.236;5.710;2023-09-19T10:54:18;18.40;99.90
18502;DHT22;68437;52.236;5.710;2023-09-19T10:56:48;18.70;99.90
18502;DHT22;68437;52.236;5.710;2023-09-19T10:59:21;19.00;99.90
18502;DHT22;68437;52.236;5.710;2023-09-19T11:01:50;19.10;99.90
18502;DHT22;68437;52.236;5.710;2023-09-19T11:04:22;19.10;99.90
18502;DHT22;68437;52.236;5.710;2023-09-19T11:07:00;19.10;99.90
18502;DHT22;68437;52.236;5.710;2023-09-19T11:09:43;19.00;99.90
18502;DHT22;68437;52.236;5.710;2023-09-19T11:12:11;18.90;99.90
18502;DHT22;68437;52.236;5.710;2023-09-19T11:14:41;18.80;99.90
18502;DHT22;68437;52.236;5.710;2023-09-19T11:17:40;18.70;99.90
18502;DHT22;68437;52.236;5.710;2023-09-19T11:20:24;18.70;99.90
18502;DHT22;68437;52.236;5.710;2023-09-19T11:23:20;18.60;99.90
18502;DHT22;68437;52.236;5.710;2023-09-19T11:25:53;18.40;99.90
18502;DHT22;68437;52.236;5.710;2023-09-19T11:28:33;18.40;99.90
18502;DHT22;68437;52.236;5.710;2023-09-19T11:31:42;18.50;99.90
18502;DHT22;68437;52.236;5.710;2023-09-19T11:34:41;18.80;99.90
18502;DHT22;68437;52.236;5.710;2023-09-19T11:40:28;19.20;99.90
18502;DHT22;68437;52.236;5.710;2023-09-19T11:42:56;19.20;99.90
18502;DHT22;68437;52.236;5.710;2023-09-19T11:46:01;19.10;99.90
18502;DHT22;68437;52.236;5.710;2023-09-19T11:48:29;19.00;99.90
18502;DHT22;68437;52.236;5.710;2023-09-19T11:50:58;18.90;99.90
18502;DHT22;68437;52.236;5.710;2023-09-19T11:53:31;18.80;99.90
18502;DHT22;68437;52.236;5.710;2023-09-19T11:56:04;18.70;99.90
18502;DHT22;68437;52.236;5.710;2023-09-19T11:58:36;18.60;99.90
18502;DHT22;68437;52.236;5.710;2023-09-19T12:01:05;18.60;99.90
18502;DHT22;68437;52.236;5.710;2023-09-19T12:03:42;18.70;99.90
18502;DHT22;68437;52.236;5.710;2023-09-19T12:06:13;18.80;99.90
18502;DHT22;68437;52.236;5.710;2023-09-19T12:08:41;18.90;99.90
18502;DHT22;68437;52.236;5.710;2023-09-19T12:11:15;18.90;99.90
18502;DHT22;68437;52.236;5.710;2023-09-19T12:13:43;19.00;99.90
18502;DHT22;68437;52.236;5.710;2023-09-19T12:16:13;18.80;99.90
18502;DHT22;68437;52.236;5.710;2023-09-19T12:18:43;18.70;99.90
18502;DHT22;68437;52.236;5.710;2023-09-19T12:21:28;18.60;99.90
18502;DHT22;68437;52.236;5.710;2023-09-19T12:24:03;18.50;99.90
18502;DHT22;68437;52.236;5.710;2023-09-19T12:26:38;18.50;99.90
18502;DHT22;68437;52.236;5.710;2023-09-19T12:29:13;18.50;99.90
18502;DHT22;68437;52.236;5.710;2023-09-19T12:31:53;18.50;99.90
18502;DHT22;68437;52.236;5.710;2023-09-19T12:34:25;18.50;99.90
18502;DHT22;68437;52.236;5.710;2023-09-19T12:37:06;18.60;99.90
18502;DHT22;68437;52.236;5.710;2023-09-19T12:39:41;18.60;99.90
18502;DHT22;68437;52.236;5.710;2023-09-19T12:42:10;18.60;99.90
18502;DHT22;68437;52.236;5.710;2023-09-19T12:44:41;18.60;99.90
18502;DHT22;68437;52.236;5.710;2023-09-19T12:47:13;18.60;99.90
18502;DHT22;68437;52.236;5.710;2023-09-19T12:50:12;18.60;99.90
18502;DHT22;68437;52.236;5.710;2023-09-19T12:52:45;18.50;99.90
18502;DHT22;68437;52.236;5.710;2023-09-19T12:55:23;18.40;99.90
18502;DHT22;68437;52.236;5.710;2023-09-19T12:58:11;18.40;99.90
18502;DHT22;68437;52.236;5.710;2023-09-19T13:00:41;18.40;99.90
18502;DHT22;68437;52.236;5.710;2023-09-19T13:03:12;18.50;99.90
18502;DHT22;68437;52.236;5.710;2023-09-19T13:05:53;18.40;99.90
18502;DHT22;68437;52.236;5.710;2023-09-19T13:08:23;18.30;99.90
18502;DHT22;68437;52.236;5.710;2023-09-19T13:11:11;18.30;99.90
18502;DHT22;68437;52.236;5.710;2023-09-19T13:13:41;18.30;99.90
18502;DHT22;68437;52.236;5.710;2023-09-19T13:16:10;18.30;99.90
18502;DHT22;68437;52.236;5.710;2023-09-19T13:18:48;18.40;99.90
18502;DHT22;68437;52.236;5.710;2023-09-19T13:21:27;18.50;99.90
18502;DHT22;68437;52.236;5.710;2023-09-19T13:23:55;18.50;99.90
18502;DHT22;68437;52.236;5.710;2023-09-19T13:26:25;18.60;99.90
18502;DHT22;68437;52.236;5.710;2023-09-19T13:28:51;18.60;99.90
18502;DHT22;68437;52.236;5.710;2023-09-19T13:31:18;18.70;99.90
18502;DHT22;68437;52.236;5.710;2023-09-19T13:33:46;18.70;99.90
18502;DHT22;68437;52.236;5.710;2023-09-19T13:36:14;18.60;99.90
18502;DHT22;68437;52.236;5.710;2023-09-19T13:38:42;18.50;99.90
18502;DHT22;68437;52.236;5.710;2023-09-19T13:41:09;18.40;99.90
18502;DHT22;68437;52.236;5.710;2023-09-19T13:43:36;18.30;99.90
18502;DHT22;68437;52.236;5.710;2023-09-19T13:46:04;18.30;99.90
18502;DHT22;68437;52.236;5.710;2023-09-19T13:48:33;18.20;99.90
18502;DHT22;68437;52.236;5.710;2023-09-19T13:51:02;18.10;99.90
18502;DHT22;68437;52.236;5.710;2023-09-19T13:53:29;18.20;99.90
18502;DHT22;68437;52.236;5.710;2023-09-19T13:55:57;18.30;99.90
18502;DHT22;68437;52.236;5.710;2023-09-19T13:58:24;18.40;99.90
18502;DHT22;68437;52.236;5.710;2023-09-19T14:00:52;18.40;99.90
18502;DHT22;68437;52.236;5.710;2023-09-19T14:03:21;18.60;99.90
18502;DHT22;68437;52.236;5.710;2023-09-19T14:05:49;18.60;99.90
18502;DHT22;68437;52.236;5.710;2023-09-19T14:08:17;18.60;99.90
18502;DHT22;68437;52.236;5.710;2023-09-19T14:10:44;18.70;99.90
18502;DHT22;68437;52.236;5.710;2023-09-19T14:13:12;18.70;99.90
18502;DHT22;68437;52.236;5.710;2023-09-19T14:15:41;18.60;99.90
18502;DHT22;68437;52.236;5.710;2023-09-19T14:18:08;18.60;99.90
18502;DHT22;68437;52.236;5.710;2023-09-19T14:20:38;18.50;99.90
18502;DHT22;68437;52.236;5.710;2023-09-19T14:23:05;18.50;99.90
18502;DHT22;68437;52.236;5.710;2023-09-19T14:25:34;18.50;99.90
18502;DHT22;68437;52.236;5.710;2023-09-19T14:28:01;18.50;99.90
18502;DHT22;68437;52.236;5.710;2023-09-19T14:30:30;18.50;99.90
18502;DHT22;68437;52.236;5.710;2023-09-19T14:32:58;18.50;99.90
18502;DHT22;68437;52.236;5.710;2023-09-19T14:35:25;18.50;99.90
18502;DHT22;68437;52.236;5.710;2023-09-19T14:37:53;18.50;99.90
18502;DHT22;68437;52.236;5.710;2023-09-19T14:40:20;18.50;99.90
18502;DHT22;68437;52.236;5.710;2023-09-19T14:42:48;18.40;99.90
18502;DHT22;68437;52.236;5.710;2023-09-19T14:45:15;18.50;99.90
18502;DHT22;68437;52.236;5.710;2023-09-19T14:47:46;18.50;99.90
18502;DHT22;68437;52.236;5.710;2023-09-19T14:50:13;18.50;99.90
18502;DHT22;68437;52.236;5.710;2023-09-19T14:52:41;18.60;99.90
18502;DHT22;68437;52.236;5.710;2023-09-19T14:55:08;18.60;99.90
18502;DHT22;68437;52.236;5.710;2023-09-19T14:57:40;18.60;99.90
18502;DHT22;68437;52.236;5.710;2023-09-19T15:00:08;18.60;99.90
18502;DHT22;68437;52.236;5.710;2023-09-19T15:02:38;18.50;99.90
18502;DHT22;68437;52.236;5.710;2023-09-19T15:05:09;18.40;99.90
18502;DHT22;68437;52.236;5.710;2023-09-19T15:07:36;18.40;99.90
18502;DHT22;68437;52.236;5.710;2023-09-19T15:10:05;18.40;99.90
18502;DHT22;68437;52.236;5.710;2023-09-19T15:12:35;18.40;99.90
18502;DHT22;68437;52.236;5.710;2023-09-19T15:15:03;18.30;99.90
18502;DHT22;68437;52.236;5.710;2023-09-19T15:17:33;18.30;99.90
18502;DHT22;68437;52.236;5.710;2023-09-19T15:20:00;18.30;99.90
18502;DHT22;68437;52.236;5.710;2023-09-19T15:22:28;18.30;99.90
18502;DHT22;68437;52.236;5.710;2023-09-19T15:24:55;18.20;99.90
18502;DHT22;68437;52.236;5.710;2023-09-19T15:27:22;18.20;99.90
18502;DHT22;68437;52.236;5.710;2023-09-19T15:29:49;18.00;99.90
18502;DHT22;68437;52.236;5.710;2023-09-19T15:32:16;17.80;99.90
18502;DHT22;68437;52.236;5.710;2023-09-19T15:34:42;17.60;99.90
18502;DHT22;68437;52.236;5.710;2023-09-19T15:37:09;17.40;99.90
18502;DHT22;68437;52.236;5.710;2023-09-19T15:39:38;17.40;99.90
18502;DHT22;68437;52.236;5.710;2023-09-19T15:42:05;17.40;99.90
18502;DHT22;68437;52.236;5.710;2023-09-19T15:44:31;17.40;99.90
18502;DHT22;68437;52.236;5.710;2023-09-19T15:46:58;17.40;99.90
18502;DHT22;68437;52.236;5.710;2023-09-19T15:49:25;17.40;99.90
18502;DHT22;68437;52.236;5.710;2023-09-19T15:51:52;17.40;99.90
18502;DHT22;68437;52.236;5.710;2023-09-19T15:54:19;17.40;99.90